Solana Beach, California
Current Conditions -  °F | °C
As of 12:55 AM on Saturday 22 Nov 2014 (Local Time) from KNKX Reporting Station
Clear Clear  
Wind Chill: 12°   Ceiling: Unl
Heat Index: 12°   Visibility: 10mi
Dew Point:   Wind: 6mph
Humidity: 86%   Direction: 80°E
Pressure: 30.07"   Gusts: NA
Location:  32.98°N, 117.27°W
Report Text: KNKX 220855Z 08005KT 10SM CLR 12/09 A3007 RMK AO2 SLP178 T01170094 52005 $
Loading
Personal Weather Stations






























Interactive Weather Map New forecast layout! Learn more

10-Day Weather Forecast

Advertisements
Track Severe Weather on mobile